Time;durP1;ratioP1;P1;durP2;ratioP2;P2;SDS_P1;SDS_P2;PMS_P1;PMS_P2;Temp;Humidity;BMP_temperature;BMP_pressure;BME280_temperature;BME280_humidity;BME280_pressure;Samples;Min_cycle;Max_cycle;Signal;HPM_P1;HPM_P2
2021/12/04 00:00:16;;;;;;;7.63;3.90;;;;;;;-1.88;100.00;94837.00;1024689;28;20484;-70
2021/12/04 00:00:47;;;;;;;6.55;3.38;;;;;;;-1.82;100.00;94851.59;1021482;29;20051;-71
2021/12/04 00:01:22;;;;;;;4.34;2.96;;;;;;;-1.94;100.00;94832.69;1024358;28;20070;-71
2021/12/04 00:01:53;;;;;;;5.44;3.40;;;;;;;-1.90;100.00;94828.72;1027911;28;20026;-73
2021/12/04 00:02:23;;;;;;;6.22;3.28;;;;;;;-1.88;100.00;94833.63;1027007;28;20585;-71
2021/12/04 00:02:54;;;;;;;5.00;3.53;;;;;;;-1.83;100.00;94844.09;1020926;28;20039;-72
2021/12/04 00:03:24;;;;;;;4.63;3.13;;;;;;;-1.80;100.00;94836.75;1017008;29;20134;-71
2021/12/04 00:03:55;;;;;;;5.60;3.40;;;;;;;-1.83;100.00;94834.59;1026846;28;20023;-70
2021/12/04 00:04:30;;;;;;;5.68;3.25;;;;;;;-1.79;100.00;94840.91;1026776;28;20019;-72
2021/12/04 00:05:02;;;;;;;6.98;4.08;;;;;;;-1.78;100.00;94834.75;1031185;28;20030;-70
2021/12/04 00:05:33;;;;;;;6.78;3.50;;;;;;;-1.78;100.00;94832.19;1022715;29;20034;-72
2021/12/04 00:06:09;;;;;;;6.28;3.60;;;;;;;-1.78;100.00;94837.31;1020977;29;20401;-70
2021/12/04 00:06:41;;;;;;;5.32;3.42;;;;;;;-1.77;100.00;94833.78;1019642;29;20043;-71
2021/12/04 00:07:11;;;;;;;5.12;3.16;;;;;;;-1.78;100.00;94831.41;1027543;28;20062;-70
2021/12/04 00:07:42;;;;;;;6.28;3.20;;;;;;;-1.77;100.00;94828.63;1030477;28;20022;-70
2021/12/04 00:08:13;;;;;;;6.38;3.78;;;;;;;-1.82;100.00;94825.88;1031102;28;20030;-71
2021/12/04 00:08:46;;;;;;;5.78;3.25;;;;;;;-1.79;100.00;94825.47;1034165;28;20079;-71
2021/12/04 00:09:18;;;;;;;4.20;3.10;;;;;;;-1.80;100.00;94829.03;1022294;29;20027;-73
2021/12/04 00:09:50;;;;;;;7.02;3.46;;;;;;;-1.77;100.00;94826.06;1034498;28;20093;-70
2021/12/04 00:10:26;;;;;;;4.90;3.06;;;;;;;-1.75;100.00;94824.06;1026612;28;20031;-72
2021/12/04 00:10:57;;;;;;;5.38;2.98;;;;;;;-1.72;100.00;94821.06;1026408;28;20034;-73
2021/12/04 00:11:27;;;;;;;5.43;3.33;;;;;;;-1.73;100.00;94829.78;1018812;29;20569;-71
2021/12/04 00:12:02;;;;;;;10.23;3.63;;;;;;;-1.77;100.00;94813.22;1021923;29;20043;-73
2021/12/04 00:12:34;;;;;;;6.24;3.20;;;;;;;-1.71;100.00;94820.09;1016145;29;20063;-72
2021/12/04 00:13:04;;;;;;;5.12;3.30;;;;;;;-1.73;100.00;94819.50;1025318;28;20059;-71
2021/12/04 00:13:35;;;;;;;5.90;3.33;;;;;;;-1.78;100.00;94811.59;1027580;28;20021;-70
2021/12/04 00:14:05;;;;;;;5.28;2.78;;;;;;;-1.72;100.00;94818.50;1023416;28;20027;-70
2021/12/04 00:14:36;;;;;;;4.22;3.17;;;;;;;-1.74;100.00;94815.38;1030035;28;20022;-71
2021/12/04 00:15:07;;;;;;;6.97;3.25;;;;;;;-1.81;100.00;94804.34;1026416;28;20038;-70
2021/12/04 00:15:38;;;;;;;3.60;2.82;;;;;;;-1.72;100.00;94815.13;1017525;29;20361;-72
2021/12/04 00:16:08;;;;;;;4.97;3.22;;;;;;;-1.73;100.00;94811.78;1018189;29;20035;-71
2021/12/04 00:16:39;;;;;;;4.40;2.63;;;;;;;-1.80;100.00;94795.63;1022324;29;20071;-70
2021/12/04 00:17:09;;;;;;;5.35;2.67;;;;;;;-1.69;100.00;94812.16;1022508;28;20034;-70
2021/12/04 00:17:40;;;;;;;8.95;3.65;;;;;;;-1.76;100.00;94799.34;1025305;28;20031;-70
2021/12/04 00:18:11;;;;;;;5.60;3.10;;;;;;;-1.80;100.00;94784.56;1022146;29;20464;-69
2021/12/04 00:18:41;;;;;;;4.68;3.00;;;;;;;-1.73;100.00;94809.22;1022453;29;20074;-69
2021/12/04 00:19:12;;;;;;;4.95;2.90;;;;;;;-1.72;100.00;94805.63;1029878;28;20031;-70
2021/12/04 00:19:42;;;;;;;3.88;2.38;;;;;;;-1.73;100.00;94804.06;1030096;28;20126;-71
2021/12/04 00:20:13;;;;;;;3.20;2.40;;;;;;;-1.77;100.00;94797.00;1029528;28;20027;-70
2021/12/04 00:20:43;;;;;;;3.65;2.60;;;;;;;-1.73;100.00;94804.06;1014972;29;20020;-72
2021/12/04 00:21:14;;;;;;;4.28;2.70;;;;;;;-1.71;100.00;94802.09;1025522;28;20049;-71
2021/12/04 00:21:44;;;;;;;3.88;2.42;;;;;;;-1.73;100.00;94809.22;1030457;28;20455;-73
2021/12/04 00:22:15;;;;;;;3.53;2.42;;;;;;;-1.72;100.00;94810.78;1026451;28;20116;-72
2021/12/04 00:22:45;;;;;;;3.15;2.22;;;;;;;-1.70;100.00;94810.59;1023830;28;20115;-72
2021/12/04 00:23:16;;;;;;;5.30;2.50;;;;;;;-1.71;100.00;94807.22;1021067;28;20042;-72
2021/12/04 00:23:46;;;;;;;4.57;2.50;;;;;;;-1.79;100.00;94802.34;1022534;28;20035;-73
2021/12/04 00:24:17;;;;;;;3.63;2.10;;;;;;;-1.79;100.00;94794.63;1018850;29;20099;-70
2021/12/04 00:24:47;;;;;;;3.95;2.42;;;;;;;-1.69;100.00;94809.59;1017687;29;20410;-71
2021/12/04 00:25:17;;;;;;;3.83;2.35;;;;;;;-1.68;100.00;94811.97;1022413;29;20030;-71
2021/12/04 00:25:48;;;;;;;2.78;2.22;;;;;;;-1.78;100.00;94796.19;1022015;28;20027;-73
2021/12/04 00:26:18;;;;;;;3.63;2.22;;;;;;;-1.69;100.00;94805.22;1028144;28;20038;-72
2021/12/04 00:26:50;;;;;;;3.97;2.45;;;;;;;-1.69;100.00;94810.38;1026009;28;20022;-71
2021/12/04 00:27:21;;;;;;;2.56;2.18;;;;;;;-1.68;100.00;94799.09;1026039;28;20027;-72
2021/12/04 00:27:51;;;;;;;3.65;2.22;;;;;;;-1.67;100.00;94805.03;1023008;28;20023;-71
2021/12/04 00:28:22;;;;;;;4.28;2.15;;;;;;;-1.75;100.00;94793.19;1025899;28;20021;-72
2021/12/04 00:28:52;;;;;;;5.40;2.67;;;;;;;-1.70;100.00;94808.81;1026449;28;20023;-71
2021/12/04 00:29:23;;;;;;;4.07;2.28;;;;;;;-1.70;100.00;94802.88;1030543;28;20182;-71
2021/12/04 00:29:53;;;;;;;4.28;2.60;;;;;;;-1.68;100.00;94800.88;1029898;28;20019;-71
2021/12/04 00:30:26;;;;;;;3.90;2.72;;;;;;;-1.64;100.00;94799.47;1026412;28;20293;-73
2021/12/04 00:30:56;;;;;;;3.94;2.58;;;;;;;-1.64;100.00;94812.34;1019081;29;20102;-72
2021/12/04 00:31:27;;;;;;;4.10;2.50;;;;;;;-1.65;100.00;94805.59;1026363;28;20591;-72
2021/12/04 00:32:08;;;;;;;4.88;2.45;;;;;;;-1.63;100.00;94805.41;1022397;29;20064;-70
2021/12/04 00:32:42;;;;;;;3.34;2.52;;;;;;;-1.71;100.00;94794.38;1024061;28;20094;-71
2021/12/04 00:33:19;;;;;;;4.68;2.38;;;;;;;-1.66;100.00;94804.81;1023161;28;20047;-73
2021/12/04 00:33:50;;;;;;;3.46;2.58;;;;;;;-1.71;100.00;94794.38;1026404;28;20400;-71
2021/12/04 00:34:23;;;;;;;2.94;2.24;;;;;;;-1.64;100.00;94807.19;1026762;28;20019;-71
2021/12/04 00:35:15;;;;;;;2.66;2.10;;;;;;;-1.72;100.00;94794.56;1029819;28;20195;-71
2021/12/04 00:35:48;;;;;;;4.62;2.30;;;;;;;-1.58;100.00;94811.47;1022629;29;20054;-71
2021/12/04 00:37:38;;;;;;;3.56;2.38;;;;;;;-1.62;100.00;94804.41;1027570;28;20074;-71
2021/12/04 00:49:18;;;;;;;4.74;2.02;;;;;;;-1.48;100.00;94777.56;1032714;28;20556;-74
2021/12/04 00:49:48;;;;;;;2.96;1.90;;;;;;;-1.42;100.00;94784.44;1027465;28;20675;-71
2021/12/04 00:50:19;;;;;;;3.55;2.10;;;;;;;-1.42;100.00;94779.28;1029968;28;20065;-70
2021/12/04 00:50:49;;;;;;;3.40;1.75;;;;;;;-1.43;100.00;94778.50;1034004;28;20021;-73
2021/12/04 00:51:20;;;;;;;3.85;2.00;;;;;;;-1.58;100.00;94754.09;1030702;28;20632;-72
2021/12/04 00:51:55;;;;;;;2.72;1.80;;;;;;;-1.41;100.00;94775.72;1026055;28;20427;-72
2021/12/04 00:52:25;;;;;;;2.10;1.68;;;;;;;-1.38;100.00;94785.59;1018064;29;20173;-72
2021/12/04 00:52:56;;;;;;;3.22;1.65;;;;;;;-1.52;100.00;94766.13;1034028;28;20124;-70
2021/12/04 00:53:27;;;;;;;3.02;1.62;;;;;;;-1.37;100.00;94784.59;1028280;28;20028;-72
2021/12/04 00:53:57;;;;;;;3.80;2.00;;;;;;;-1.46;100.00;94767.88;1029556;28;20133;-69
2021/12/04 00:54:28;;;;;;;2.08;1.60;;;;;;;-1.46;100.00;94773.78;1022042;29;20019;-71
2021/12/04 00:54:58;;;;;;;2.78;1.80;;;;;;;-1.38;100.00;94777.88;1024798;28;20027;-72
2021/12/04 00:55:29;;;;;;;3.00;1.63;;;;;;;-1.38;100.00;94775.28;1027167;28;20010;-72
2021/12/04 00:55:59;;;;;;;2.08;1.55;;;;;;;-1.45;100.00;94764.28;1025346;28;20030;-72
2021/12/04 00:56:30;;;;;;;2.10;1.55;;;;;;;-1.40;100.00;94777.31;1030170;28;20037;-70
2021/12/04 00:57:00;;;;;;;2.30;1.77;;;;;;;-1.41;100.00;94773.16;1022956;28;20698;-72
2021/12/04 00:57:31;;;;;;;2.00;1.80;;;;;;;-1.42;100.00;94774.16;1022218;28;20524;-72
2021/12/04 00:58:02;;;;;;;2.47;1.67;;;;;;;-1.36;100.00;94773.31;1022391;28;20130;-72
2021/12/04 00:58:32;;;;;;;2.82;1.70;;;;;;;-1.43;100.00;94762.28;1023363;28;20411;-73
2021/12/04 00:59:03;;;;;;;2.53;1.75;;;;;;;-1.36;100.00;94769.94;1021957;28;20940;-71
2021/12/04 00:59:34;;;;;;;2.16;1.68;;;;;;;-1.37;100.00;94776.09;1021059;28;20107;-72
2021/12/04 01:00:06;;;;;;;1.83;1.52;;;;;;;-1.47;100.00;94771.44;1026343;28;20034;-71
2021/12/04 01:00:37;;;;;;;3.80;1.76;;;;;;;-1.38;100.00;94767.56;1018454;29;20039;-72
2021/12/04 01:01:07;;;;;;;3.50;1.55;;;;;;;-1.36;100.00;94770.75;1014299;29;20040;-71
2021/12/04 01:01:39;;;;;;;7.30;2.20;;;;;;;-1.39;100.00;94767.81;1019212;29;20028;-72
2021/12/04 01:02:09;;;;;;;2.60;1.90;;;;;;;-1.52;100.00;94754.06;1015306;29;20043;-69
2021/12/04 01:02:42;;;;;;;2.08;1.88;;;;;;;-1.55;100.00;94748.53;1011988;29;20043;-72
2021/12/04 01:03:12;;;;;;;2.58;1.74;;;;;;;-1.43;100.00;94767.44;1030217;28;20032;-71
2021/12/04 01:03:43;;;;;;;2.40;1.63;;;;;;;-1.42;100.00;94763.84;1030572;28;20057;-71
2021/12/04 01:04:17;;;;;;;1.92;1.70;;;;;;;-1.43;100.00;94762.28;1030564;28;20025;-71
2021/12/04 01:04:48;;;;;;;4.24;1.86;;;;;;;-1.45;100.00;94759.13;1029143;28;20026;-71
2021/12/04 01:05:18;;;;;;;3.00;1.75;;;;;;;-1.46;100.00;94758.34;1027051;28;20050;-70
2021/12/04 01:05:49;;;;;;;2.67;1.95;;;;;;;-1.45;100.00;94766.84;1026381;28;20548;-71
2021/12/04 01:06:19;;;;;;;3.65;2.10;;;;;;;-1.47;100.00;94761.94;1022818;28;20572;-70
2021/12/04 01:06:49;;;;;;;2.80;2.10;;;;;;;-1.46;100.00;94758.34;1022566;29;20031;-71
2021/12/04 01:07:20;;;;;;;3.60;2.25;;;;;;;-1.44;100.00;94764.09;1023346;28;20560;-70
2021/12/04 01:07:50;;;;;;;3.20;2.28;;;;;;;-1.45;100.00;94759.13;1026439;28;20039;-72
2021/12/04 01:08:21;;;;;;;3.85;1.92;;;;;;;-1.46;100.00;94752.44;1030509;28;20268;-73
2021/12/04 01:08:51;;;;;;;3.63;2.33;;;;;;;-1.40;100.00;94761.09;1026436;28;20053;-69
2021/12/04 01:09:23;;;;;;;3.47;2.05;;;;;;;-1.47;100.00;94761.94;1026200;28;20052;-70
2021/12/04 01:09:53;;;;;;;4.32;2.12;;;;;;;-1.56;100.00;94741.84;1022555;29;20401;-72
2021/12/04 01:10:24;;;;;;;2.85;1.95;;;;;;;-1.53;100.00;94752.47;1024586;28;20072;-71
2021/12/04 01:10:54;;;;;;;2.35;1.77;;;;;;;-1.48;100.00;94762.13;1026190;28;20747;-69
2021/12/04 01:11:25;;;;;;;3.00;2.33;;;;;;;-1.52;100.00;94754.06;1018596;29;20028;-72
2021/12/04 01:11:55;;;;;;;3.20;2.15;;;;;;;-1.45;100.00;94759.91;1014550;29;20032;-72
2021/12/04 01:12:26;;;;;;;6.20;3.00;;;;;;;-1.47;100.00;94761.94;1022327;28;20433;-72
2021/12/04 01:13:00;;;;;;;3.53;2.22;;;;;;;-1.48;100.00;94759.56;1022228;29;20023;-72
2021/12/04 01:13:31;;;;;;;3.46;2.20;;;;;;;-1.46;100.00;94758.34;1018245;29;20023;-72
2021/12/04 01:14:01;;;;;;;2.78;1.67;;;;;;;-1.46;100.00;94758.34;1018478;29;20482;-71
2021/12/04 01:14:32;;;;;;;3.17;2.03;;;;;;;-1.45;100.00;94764.28;1022149;28;20059;-69
2021/12/04 01:15:04;;;;;;;3.20;2.05;;;;;;;-1.46;100.00;94757.56;1026419;28;20041;-71
2021/12/04 01:15:34;;;;;;;3.74;2.10;;;;;;;-1.46;100.00;94760.16;1026473;28;20030;-71
2021/12/04 01:16:05;;;;;;;3.35;2.00;;;;;;;-1.47;100.00;94753.44;1022452;29;20023;-72
2021/12/04 01:16:35;;;;;;;3.97;2.60;;;;;;;-1.57;100.00;94742.84;1022635;28;20031;-71
2021/12/04 01:17:05;;;;;;;4.03;2.13;;;;;;;-1.48;100.00;94750.06;1022503;29;20058;-71
2021/12/04 01:17:36;;;;;;;3.83;2.45;;;;;;;-1.47;100.00;94754.22;1015677;29;20047;-70
2021/12/04 01:18:06;;;;;;;4.45;2.05;;;;;;;-1.52;100.00;94736.03;1022199;29;20031;-73
2021/12/04 01:18:37;;;;;;;4.82;2.67;;;;;;;-1.51;100.00;94744.53;1018481;29;20032;-70
2021/12/04 01:19:08;;;;;;;3.14;2.28;;;;;;;-1.44;100.00;94751.22;1026378;28;20121;-70
2021/12/04 01:19:38;;;;;;;3.05;1.92;;;;;;;-1.45;100.00;94746.28;1030326;28;20030;-72
2021/12/04 01:20:09;;;;;;;4.40;1.90;;;;;;;-1.52;100.00;94732.69;1022204;29;20042;-71
2021/12/04 01:20:40;;;;;;;3.95;2.25;;;;;;;-1.45;100.00;94748.84;1026243;28;20027;-72
2021/12/04 01:21:10;;;;;;;4.50;2.28;;;;;;;-1.47;100.00;94748.28;1023379;28;20469;-69
2021/12/04 01:21:41;;;;;;;4.53;2.38;;;;;;;-1.55;100.00;94730.53;1026376;28;20026;-70
2021/12/04 01:22:12;;;;;;;2.42;1.90;;;;;;;-1.46;100.00;94748.06;1018851;29;20628;-70
2021/12/04 01:22:42;;;;;;;5.20;2.28;;;;;;;-1.48;100.00;94750.06;1023671;28;20035;-71
2021/12/04 01:23:15;;;;;;;2.50;1.80;;;;;;;-1.46;100.00;94742.13;1025088;28;20527;-69
2021/12/04 01:23:46;;;;;;;3.82;2.38;;;;;;;-1.45;100.00;94739.34;1022414;29;20102;-69
2021/12/04 01:24:16;;;;;;;4.55;2.03;;;;;;;-1.50;100.00;94738.41;1026335;28;20472;-71
2021/12/04 01:24:47;;;;;;;2.65;1.98;;;;;;;-1.55;100.00;94717.69;1025362;28;20497;-70
2021/12/04 01:25:18;;;;;;;3.78;1.98;;;;;;;-1.48;100.00;94733.84;1018596;29;20027;-71
2021/12/04 01:25:54;;;;;;;2.30;1.68;;;;;;;-1.46;100.00;94737.00;1019641;28;20039;-70
2021/12/04 01:26:24;;;;;;;4.03;2.20;;;;;;;-1.47;100.00;94730.28;1023921;28;20462;-73
2021/12/04 01:26:55;;;;;;;3.95;2.22;;;;;;;-1.46;100.00;94735.19;1024567;28;20561;-71
2021/12/04 01:27:25;;;;;;;4.75;2.20;;;;;;;-1.44;100.00;94732.44;1026416;28;20452;-71
2021/12/04 01:27:56;;;;;;;4.32;2.05;;;;;;;-1.43;100.00;94731.44;1022298;29;20015;-72
2021/12/04 01:28:26;;;;;;;4.88;2.40;;;;;;;-1.48;100.00;94714.03;1022208;29;20027;-70
2021/12/04 01:28:56;;;;;;;2.65;2.03;;;;;;;-1.42;100.00;94726.06;1022213;29;20116;-71
2021/12/04 01:29:27;;;;;;;2.60;1.77;;;;;;;-1.41;100.00;94719.13;1022323;28;20456;-71
2021/12/04 01:29:57;;;;;;;4.57;2.10;;;;;;;-1.37;100.00;94724.66;1025560;28;20026;-74
2021/12/04 01:30:28;;;;;;;6.80;1.90;;;;;;;-1.38;100.00;94717.91;1022552;28;20019;-70
2021/12/04 01:30:58;;;;;;;6.25;2.20;;;;;;;-1.37;100.00;94719.50;1018490;29;20032;-73
2021/12/04 01:31:29;;;;;;;4.22;2.10;;;;;;;-1.37;100.00;94717.72;1014503;29;20438;-70
2021/12/04 01:31:59;;;;;;;2.92;1.80;;;;;;;-1.37;100.00;94717.72;1018352;29;20096;-73
2021/12/04 01:32:29;;;;;;;3.65;1.90;;;;;;;-1.42;100.00;94707.25;1018512;29;20024;-71
2021/12/04 01:33:00;;;;;;;2.83;2.20;;;;;;;-1.36;100.00;94716.72;1030200;28;20026;-71
2021/12/04 01:33:31;;;;;;;3.00;2.00;;;;;;;-1.37;100.00;94720.28;1030322;28;20062;-70
2021/12/04 01:34:01;;;;;;;3.00;2.22;;;;;;;-1.36;100.00;94716.72;1018455;29;20094;-70
2021/12/04 01:34:32;;;;;;;3.28;2.13;;;;;;;-1.39;100.00;94711.19;1021851;29;20086;-70
2021/12/04 01:35:02;;;;;;;2.80;2.22;;;;;;;-1.42;100.00;94707.25;1018277;29;20032;-71
2021/12/04 01:35:33;;;;;;;3.03;2.15;;;;;;;-1.44;100.00;94706.72;1026408;28;20027;-70
2021/12/04 01:36:06;;;;;;;3.14;2.34;;;;;;;-1.34;100.00;94722.44;1030082;28;20137;-70
2021/12/04 01:36:37;;;;;;;6.25;2.80;;;;;;;-1.32;100.00;94717.84;1027737;28;20529;-71
2021/12/04 01:37:07;;;;;;;13.88;12.15;;;;;;;-1.37;100.00;94712.56;1030625;28;20026;-72
2021/12/04 01:37:38;;;;;;;14.27;12.38;;;;;;;-1.32;100.00;94712.69;1030026;28;20034;-71
2021/12/04 01:38:10;;;;;;;9.57;6.72;;;;;;;-1.36;100.00;94706.41;1027733;28;20401;-72
2021/12/04 01:38:41;;;;;;;12.46;6.48;;;;;;;-1.32;100.00;94717.06;1030441;28;20026;-70
2021/12/04 01:39:11;;;;;;;6.57;5.88;;;;;;;-1.30;100.00;94710.72;1030554;28;20026;-70
2021/12/04 01:39:42;;;;;;;45.33;23.80;;;;;;;-1.28;100.00;94706.13;1030160;28;20026;-71
2021/12/04 01:40:12;;;;;;;56.17;28.17;;;;;;;-1.30;100.00;94709.94;1032644;28;20038;-70
2021/12/04 01:40:43;;;;;;;88.57;41.28;;;;;;;-1.30;100.00;94704.78;1031526;28;20469;-73
2021/12/04 01:41:14;;;;;;;112.44;53.88;;;;;;;-1.29;100.00;94699.41;1033516;28;20119;-72
2021/12/04 01:41:44;;;;;;;115.55;58.28;;;;;;;-1.26;100.00;94701.56;1025525;28;20491;-71
2021/12/04 01:42:20;;;;;;;70.85;37.70;;;;;;;-1.50;100.00;94668.97;1029533;28;20144;-73
2021/12/04 01:42:50;;;;;;;33.44;19.02;;;;;;;-1.33;100.00;94689.78;1026339;28;20033;-71
2021/12/04 01:43:21;;;;;;;19.73;10.90;;;;;;;-1.28;100.00;94698.41;1019873;29;20053;-71
2021/12/04 01:43:51;;;;;;;14.32;8.82;;;;;;;-1.34;100.00;94683.84;1014547;29;20060;-70
2021/12/04 01:44:22;;;;;;;14.07;8.73;;;;;;;-1.34;100.00;94681.28;1018551;28;20035;-70
2021/12/04 01:44:52;;;;;;;13.00;7.97;;;;;;;-1.26;100.00;94690.47;1018380;29;20515;-70
2021/12/04 01:45:23;;;;;;;6.55;4.50;;;;;;;-1.25;100.00;94687.69;1018440;29;20044;-70
2021/12/04 01:45:54;;;;;;;5.35;3.22;;;;;;;-1.23;100.00;94687.47;1018614;29;20505;-72
2021/12/04 01:46:26;;;;;;;5.82;3.48;;;;;;;-1.29;100.00;94676.25;1018921;28;20040;-71
2021/12/04 01:46:57;;;;;;;4.14;2.72;;;;;;;-1.24;100.00;94678.97;1026102;28;20053;-71
2021/12/04 01:47:27;;;;;;;4.14;2.46;;;;;;;-1.27;100.00;94679.41;1026952;28;20046;-70
2021/12/04 01:47:59;;;;;;;5.30;3.33;;;;;;;-1.21;100.00;94667.44;1030535;28;20447;-73
2021/12/04 01:48:29;;;;;;;5.70;2.60;;;;;;;-1.23;100.00;94675.41;1022164;29;20036;-72
2021/12/04 01:49:00;;;;;;;4.63;2.67;;;;;;;-1.26;100.00;94670.69;1022348;29;20035;-71
2021/12/04 01:49:30;;;;;;;3.95;2.70;;;;;;;-1.26;100.00;94668.09;1026412;28;20058;-71
2021/12/04 01:50:02;;;;;;;4.22;2.63;;;;;;;-1.29;100.00;94665.97;1027560;28;20093;-72
2021/12/04 01:50:32;;;;;;;4.08;2.62;;;;;;;-1.23;100.00;94675.41;1030268;28;20023;-73
2021/12/04 01:51:03;;;;;;;5.22;2.70;;;;;;;-1.19;100.00;94678.31;1022453;29;20031;-72
2021/12/04 01:51:34;;;;;;;3.67;2.33;;;;;;;-1.23;100.00;94670.25;1026067;28;20026;-71
2021/12/04 01:52:04;;;;;;;2.72;2.03;;;;;;;-1.17;100.00;94689.19;1026367;28;20034;-72
2021/12/04 01:52:35;;;;;;;4.90;2.50;;;;;;;-1.15;100.00;94683.81;1022565;29;20023;-72
2021/12/04 01:53:05;;;;;;;3.47;2.38;;;;;;;-1.14;100.00;94693.13;1026303;28;20035;-71
2021/12/04 01:53:36;;;;;;;2.17;1.88;;;;;;;-1.16;100.00;94679.69;1030670;28;20018;-70
2021/12/04 01:54:06;;;;;;;2.17;1.60;;;;;;;-1.14;100.00;94687.97;1022973;29;20036;-71
2021/12/04 01:54:37;;;;;;;4.55;1.83;;;;;;;-1.21;100.00;94680.31;1020565;29;20023;-71
2021/12/04 01:55:08;;;;;;;3.20;2.00;;;;;;;-1.16;100.00;94690.78;1021083;28;20035;-70
2021/12/04 01:55:38;;;;;;;4.38;1.98;;;;;;;-1.20;100.00;94674.97;1022839;29;20420;-70
2021/12/04 01:56:09;;;;;;;2.42;1.58;;;;;;;-1.14;100.00;94683.63;1026690;28;20037;-71
2021/12/04 01:56:39;;;;;;;3.22;1.88;;;;;;;-1.12;100.00;94691.13;1022509;28;20039;-72
2021/12/04 01:57:11;;;;;;;2.85;1.48;;;;;;;-1.12;100.00;94691.13;1026325;28;20031;-69
2021/12/04 01:57:41;;;;;;;3.22;1.72;;;;;;;-1.17;100.00;94684.06;1025756;28;20113;-70
2021/12/04 01:58:12;;;;;;;4.63;1.60;;;;;;;-1.08;100.00;94690.47;1026671;28;20023;-69
2021/12/04 01:58:42;;;;;;;1.83;1.48;;;;;;;-1.12;100.00;94691.13;1026483;28;20035;-73
2021/12/04 01:59:13;;;;;;;2.88;1.20;;;;;;;-1.03;100.00;94687.25;1018815;29;20020;-70
2021/12/04 01:59:43;;;;;;;2.38;1.23;;;;;;;-1.04;100.00;94670.22;1014991;29;20028;-72
2021/12/04 02:00:14;;;;;;;1.17;0.95;;;;;;;-0.92;100.00;94675.44;1024223;28;20708;-72
2021/12/04 02:00:44;;;;;;;1.67;1.00;;;;;;;-0.82;100.00;94663.63;1015000;29;20517;-71
2021/12/04 02:01:15;;;;;;;1.70;0.95;;;;;;;-0.55;100.00;94678.72;1015006;29;20024;-71
2021/12/04 02:01:45;;;;;;;2.60;0.88;;;;;;;-0.33;100.00;94673.88;1022730;29;20035;-70
2021/12/04 02:02:16;;;;;;;2.05;1.02;;;;;;;-0.41;100.00;94672.38;1022811;29;20027;-70
2021/12/04 02:02:46;;;;;;;1.95;1.13;;;;;;;-0.59;100.00;94641.53;1022815;29;20035;-70
2021/12/04 02:03:18;;;;;;;2.47;0.88;;;;;;;-0.38;100.00;94671.16;1022917;28;20078;-72
2021/12/04 02:03:48;;;;;;;1.20;0.90;;;;;;;-0.43;100.00;94658.16;1030223;28;20031;-72
2021/12/04 02:04:19;;;;;;;1.98;1.02;;;;;;;-0.38;100.00;94655.69;1025639;28;20481;-73
2021/12/04 02:04:49;;;;;;;1.35;1.00;;;;;;;-0.34;100.00;94649.09;1026108;28;20038;-70
2021/12/04 02:05:20;;;;;;;1.35;0.70;;;;;;;-0.40;100.00;94647.38;1026557;28;20448;-70
2021/12/04 02:05:50;;;;;;;1.33;1.00;;;;;;;-0.38;100.00;94660.84;1018860;29;20051;-71
2021/12/04 02:06:21;;;;;;;1.25;1.00;;;;;;;-0.36;100.00;94658.84;1018802;29;20030;-70
2021/12/04 02:06:51;;;;;;;1.00;0.90;;;;;;;-0.39;100.00;94652.34;1014956;29;20032;-72
2021/12/04 02:07:22;;;;;;;1.50;1.08;;;;;;;-0.47;100.00;94647.47;1019858;29;20108;-69
2021/12/04 02:07:53;;;;;;;2.53;1.00;;;;;;;-0.41;100.00;94646.59;1026617;28;20034;-72
2021/12/04 02:08:23;;;;;;;1.63;1.30;;;;;;;-0.52;100.00;94630.13;1026956;28;20034;-71
2021/12/04 02:08:54;;;;;;;2.88;0.80;;;;;;;-0.33;100.00;94642.94;1030945;28;20030;-70
2021/12/04 02:09:24;;;;;;;1.10;0.90;;;;;;;-0.32;100.00;94642.72;1033499;28;20022;-69
2021/12/04 02:09:54;;;;;;;2.13;1.33;;;;;;;-0.31;100.00;94646.06;1030908;28;20032;-70
2021/12/04 02:10:25;;;;;;;1.75;1.05;;;;;;;-0.37;100.00;94623.75;1030732;28;20043;-70
2021/12/04 02:10:58;;;;;;;1.30;1.00;;;;;;;-0.32;100.00;94634.97;1027602;28;20074;-70
2021/12/04 02:11:29;;;;;;;3.86;1.00;;;;;;;-0.36;100.00;94622.78;1022965;29;20524;-71
2021/12/04 02:11:59;;;;;;;2.03;1.13;;;;;;;-0.32;100.00;94634.97;1022769;29;20031;-70
2021/12/04 02:12:30;;;;;;;3.60;1.02;;;;;;;-0.32;100.00;94629.81;1022670;29;20038;-70
2021/12/04 02:13:01;;;;;;;1.42;1.00;;;;;;;-0.35;100.00;94629.50;1026335;28;20094;-72
2021/12/04 02:13:31;;;;;;;1.75;0.88;;;;;;;-0.33;100.00;94633.41;1032541;28;20057;-69
2021/12/04 02:14:02;;;;;;;1.45;0.90;;;;;;;-0.32;100.00;94631.63;1030109;28;20650;-70
2021/12/04 02:14:33;;;;;;;1.40;0.90;;;;;;;-0.36;100.00;94628.72;1024733;28;20050;-69
2021/12/04 02:15:05;;;;;;;8.20;1.20;;;;;;;-0.43;100.00;94622.09;1022758;28;20035;-70
2021/12/04 02:15:35;;;;;;;1.28;0.76;;;;;;;-0.34;100.00;94636.97;1026655;28;20360;-71
2021/12/04 02:16:19;;;;;;;2.03;1.20;;;;;;;-0.31;100.00;94640.91;1034552;28;20030;-70
2021/12/04 02:16:50;;;;;;;1.84;0.90;;;;;;;-0.36;100.00;94639.00;1030938;28;20054;-72
2021/12/04 02:17:21;;;;;;;1.64;0.94;;;;;;;-0.37;100.00;94634.88;1028919;28;20034;-70
2021/12/04 02:17:51;;;;;;;1.10;1.00;;;;;;;-0.33;100.00;94633.41;1027649;28;20081;-72
2021/12/04 02:18:22;;;;;;;3.70;1.00;;;;;;;-0.34;100.00;94642.13;1026926;28;20503;-72
2021/12/04 02:18:52;;;;;;;1.60;1.00;;;;;;;-0.42;100.00;94627.00;1026868;28;20123;-71
2021/12/04 02:19:24;;;;;;;1.52;1.40;;;;;;;-0.35;100.00;94629.50;1020393;29;20031;-73
2021/12/04 02:19:54;;;;;;;1.72;0.90;;;;;;;-0.41;100.00;94627.78;1022698;28;20031;-71
2021/12/04 02:20:27;;;;;;;1.55;1.13;;;;;;;-0.47;100.00;94611.41;1018754;29;20179;-71
2021/12/04 02:20:58;;;;;;;1.36;1.04;;;;;;;-0.41;100.00;94626.00;1023190;28;20460;-70
2021/12/04 02:21:30;;;;;;;1.85;1.02;;;;;;;-0.39;100.00;94630.94;1020318;29;20035;-71
2021/12/04 02:22:00;;;;;;;1.56;0.92;;;;;;;-0.38;100.00;94635.88;1022684;29;20038;-70
2021/12/04 02:22:31;;;;;;;1.83;1.27;;;;;;;-0.38;100.00;94637.66;1023478;28;20075;-71
2021/12/04 02:23:02;;;;;;;2.10;1.00;;;;;;;-0.39;100.00;94628.38;1026854;28;20027;-73
2021/12/04 02:23:33;;;;;;;1.02;0.90;;;;;;;-0.35;100.00;94630.28;1022903;29;20425;-70
2021/12/04 02:24:04;;;;;;;1.28;1.02;;;;;;;-0.35;100.00;94632.84;1018688;29;20059;-70
2021/12/04 02:24:35;;;;;;;2.13;1.08;;;;;;;-0.40;100.00;94621.63;1018211;29;20489;-71
2021/12/04 02:25:08;;;;;;;1.42;1.05;;;;;;;-0.34;100.00;94636.97;1022976;28;20031;-71
2021/12/04 02:25:39;;;;;;;2.42;1.16;;;;;;;-0.34;100.00;94634.41;1022717;29;20078;-70
2021/12/04 02:26:09;;;;;;;2.20;1.00;;;;;;;-0.30;100.00;94635.56;1020744;29;20058;-72
2021/12/04 02:26:40;;;;;;;1.20;1.00;;;;;;;-0.29;100.00;94634.53;1030386;28;20026;-69
2021/12/04 02:27:13;;;;;;;1.40;0.80;;;;;;;-0.31;100.00;94631.38;1026963;28;20416;-70
2021/12/04 02:27:43;;;;;;;1.32;1.00;;;;;;;-0.33;100.00;94633.41;1029942;28;20034;-71
2021/12/04 02:28:14;;;;;;;1.88;0.73;;;;;;;-0.39;100.00;94621.41;1028217;28;20476;-70
2021/12/04 02:28:44;;;;;;;2.20;0.90;;;;;;;-0.31;100.00;94633.19;1018754;29;20054;-70
2021/12/04 02:29:15;;;;;;;1.65;1.13;;;;;;;-0.38;100.00;94617.81;1018983;29;20031;-70
2021/12/04 02:29:48;;;;;;;1.85;1.00;;;;;;;-0.25;100.00;94630.50;1016803;29;20032;-71
2021/12/04 02:30:21;;;;;;;1.92;1.28;;;;;;;-0.18;100.00;94627.03;1022781;29;20082;-69
2021/12/04 02:30:51;;;;;;;2.54;0.98;;;;;;;-0.20;100.00;94623.91;1019646;29;20020;-70
2021/12/04 02:31:22;;;;;;;1.88;1.00;;;;;;;-0.30;100.00;94611.59;1023306;28;20023;-71
2021/12/04 02:31:55;;;;;;;2.95;1.15;;;;;;;-0.33;100.00;94612.81;1023734;28;20082;-71
2021/12/04 02:32:26;;;;;;;3.04;0.90;;;;;;;-0.22;100.00;94623.34;1026328;28;20081;-71
2021/12/04 02:32:56;;;;;;;1.50;1.00;;;;;;;-0.22;100.00;94623.34;1019183;29;20091;-72
2021/12/04 02:33:26;;;;;;;2.47;0.88;;;;;;;-0.24;100.00;94619.19;1019318;28;20051;-72
2021/12/04 02:33:57;;;;;;;3.42;1.08;;;;;;;-0.27;100.00;94618.84;1023348;28;20030;-70
2021/12/04 02:34:29;;;;;;;1.20;0.90;;;;;;;-0.27;100.00;94611.91;1026815;28;20101;-72
2021/12/04 02:34:59;;;;;;;1.46;0.88;;;;;;;-0.21;100.00;94625.69;1022830;28;20023;-72
2021/12/04 02:35:30;;;;;;;1.88;1.20;;;;;;;-0.22;100.00;94623.34;1022928;28;20512;-71
2021/12/04 02:36:02;;;;;;;2.83;1.17;;;;;;;-0.24;100.00;94626.13;1031558;28;20519;-71
2021/12/04 02:36:33;;;;;;;1.44;1.16;;;;;;;-0.22;100.00;94620.78;1027674;28;20770;-72
2021/12/04 02:37:03;;;;;;;1.48;1.10;;;;;;;-0.21;100.00;94614.59;1035422;28;20034;-71